createdAt,value
2022-12-01T00:02:04.363Z,10.52
2022-12-01T00:04:31.384Z,7.45
2022-12-01T00:06:58.253Z,10.32
2022-12-01T00:09:43.437Z,9.95
2022-12-01T00:12:10.130Z,8.98
2022-12-01T00:14:36.724Z,9.30
2022-12-01T00:17:04.959Z,9.52
2022-12-01T00:19:31.651Z,7.93
2022-12-01T00:21:58.758Z,10.07
2022-12-01T00:24:25.579Z,10.70
2022-12-01T00:26:52.273Z,9.45
2022-12-01T00:29:19.004Z,9.10
2022-12-01T00:31:46.013Z,10.05
2022-12-01T00:34:22.646Z,10.43
2022-12-01T00:36:49.560Z,8.98
2022-12-01T00:39:16.264Z,9.48
2022-12-01T00:41:43.043Z,9.10
2022-12-01T00:44:09.826Z,10.80
2022-12-01T00:46:36.551Z,8.98
2022-12-01T00:49:03.833Z,10.95
2022-12-01T00:51:30.625Z,9.57
2022-12-01T00:53:57.644Z,10.60
2022-12-01T00:56:24.442Z,9.73
2022-12-01T00:58:50.964Z,10.13
2022-12-01T01:01:17.851Z,11.15
2022-12-01T01:03:44.659Z,12.50
2022-12-01T01:06:12.553Z,12.02
2022-12-01T01:08:39.879Z,10.38
2022-12-01T01:11:07.119Z,10.27
2022-12-01T01:13:35.057Z,10.35
2022-12-01T01:16:07.795Z,10.00
2022-12-01T01:18:34.888Z,11.02
2022-12-01T01:21:05.191Z,10.25
2022-12-01T01:23:32.504Z,10.50
2022-12-01T01:26:18.896Z,11.15
2022-12-01T01:28:46.457Z,11.82
2022-12-01T01:31:16.463Z,9.98
2022-12-01T01:33:44.062Z,9.85
2022-12-01T01:36:11.051Z,10.48
2022-12-01T01:38:37.850Z,11.65
2022-12-01T01:41:05.787Z,10.15
2022-12-01T01:43:51.128Z,10.63
2022-12-01T01:46:21.823Z,10.68
2022-12-01T01:49:00.235Z,10.00
2022-12-01T01:51:32.425Z,10.35
2022-12-01T01:54:07.221Z,11.50
2022-12-01T01:56:36.470Z,10.07
2022-12-01T01:59:04.669Z,10.38
2022-12-01T02:01:31.523Z,10.73
2022-12-01T02:03:58.555Z,9.85
2022-12-01T02:06:25.240Z,11.27
2022-12-01T02:08:52.096Z,10.60
2022-12-01T02:11:27.817Z,13.57
2022-12-01T02:14:08.716Z,12.20
2022-12-01T02:17:04.050Z,9.30
2022-12-01T02:19:49.281Z,10.63
2022-12-01T02:22:27.306Z,10.82
2022-12-01T02:25:18.185Z,11.48
2022-12-01T02:27:44.734Z,11.10
2022-12-01T02:30:11.367Z,10.20
2022-12-01T02:32:40.628Z,11.30
2022-12-01T02:37:58.770Z,12.05
2022-12-01T02:40:33.725Z,10.90
2022-12-01T02:43:41.543Z,9.65
2022-12-01T02:46:33.997Z,10.30
2022-12-01T02:49:06.959Z,10.68
2022-12-01T02:51:36.515Z,10.60
2022-12-01T02:54:05.364Z,9.90
2022-12-01T02:56:32.123Z,10.88
2022-12-01T02:58:58.821Z,10.10
2022-12-01T03:01:31.175Z,10.18
2022-12-01T03:04:30.633Z,10.30
2022-12-01T03:09:52.810Z,11.68
2022-12-01T03:12:55.705Z,12.43
2022-12-01T03:15:57.533Z,12.05
2022-12-01T03:18:59.649Z,11.82
2022-12-01T03:21:38.242Z,12.23
2022-12-01T03:24:27.192Z,10.83
2022-12-01T03:26:57.826Z,11.82
2022-12-01T03:29:33.297Z,11.68
2022-12-01T03:32:08.553Z,10.85
2022-12-01T03:34:45.964Z,10.63
2022-12-01T03:37:37.874Z,12.25
2022-12-01T03:40:11.989Z,10.93
2022-12-01T03:42:45.487Z,9.65
2022-12-01T03:45:18.655Z,10.45
2022-12-01T03:47:45.895Z,11.90
2022-12-01T03:50:14.238Z,12.40
2022-12-01T03:52:57.548Z,10.95
2022-12-01T03:55:27.925Z,13.13
2022-12-01T03:58:05.956Z,10.90
2022-12-01T04:00:33.790Z,13.13
2022-12-01T04:03:04.157Z,13.52
2022-12-01T04:05:33.090Z,10.32
2022-12-01T04:08:00.289Z,11.20
2022-12-01T04:10:27.058Z,14.20
2022-12-01T04:12:59.153Z,10.90
2022-12-01T04:15:26.559Z,11.48
2022-12-01T04:17:53.609Z,12.35
2022-12-01T04:20:20.782Z,10.35
2022-12-01T04:22:47.919Z,12.20
2022-12-01T04:25:14.738Z,12.02
2022-12-01T04:27:41.414Z,11.43
2022-12-01T04:30:08.707Z,11.30
2022-12-01T04:32:40.625Z,11.40
2022-12-01T04:35:09.921Z,12.07
2022-12-01T04:37:37.495Z,10.45
2022-12-01T04:40:05.775Z,12.73
2022-12-01T04:42:32.398Z,13.35
2022-12-01T04:44:58.978Z,10.88
2022-12-01T04:47:25.702Z,11.77
2022-12-01T04:49:52.461Z,10.68
2022-12-01T04:52:19.281Z,11.35
2022-12-01T04:54:46.025Z,9.65
2022-12-01T04:57:12.757Z,12.07
2022-12-01T04:59:39.595Z,11.30
2022-12-01T05:02:06.452Z,10.57
2022-12-01T05:04:34.216Z,11.82
2022-12-01T05:07:01.057Z,10.55
2022-12-01T05:09:27.896Z,10.60
2022-12-01T05:11:54.437Z,11.93
2022-12-01T05:14:21.221Z,10.77
2022-12-01T05:16:47.908Z,10.30
2022-12-01T05:19:33.295Z,11.50
2022-12-01T05:22:00.157Z,10.25
2022-12-01T05:24:27.110Z,11.85
2022-12-01T05:26:53.754Z,11.57
2022-12-01T05:29:20.453Z,10.20
2022-12-01T05:31:47.395Z,10.75
2022-12-01T05:34:14.224Z,11.25
2022-12-01T05:36:40.985Z,11.73
2022-12-01T05:39:07.820Z,11.18
2022-12-01T05:41:34.610Z,12.25
2022-12-01T05:44:01.443Z,14.48
2022-12-01T05:46:28.268Z,12.65
2022-12-01T05:48:54.871Z,12.15
2022-12-01T05:51:21.544Z,12.07
2022-12-01T05:53:48.252Z,12.73
2022-12-01T05:56:14.819Z,12.32
2022-12-01T05:58:41.386Z,12.48
2022-12-01T06:01:11.253Z,11.68
2022-12-01T06:03:37.838Z,11.57
2022-12-01T06:06:04.640Z,12.48
2022-12-01T06:08:31.276Z,11.02
2022-12-01T06:10:57.949Z,10.35
2022-12-01T06:13:24.544Z,11.80
2022-12-01T06:16:02.661Z,12.85
2022-12-01T06:18:38.498Z,12.55
2022-12-01T06:21:06.999Z,12.57
2022-12-01T06:23:34.544Z,12.68
2022-12-01T06:26:01.198Z,11.35
2022-12-01T06:28:28.010Z,12.75
2022-12-01T06:30:59.448Z,12.07
2022-12-01T06:33:29.948Z,13.65
2022-12-01T06:36:01.848Z,13.73
2022-12-01T06:38:37.731Z,10.98
2022-12-01T06:41:05.673Z,13.63
2022-12-01T06:43:32.600Z,12.38
2022-12-01T06:46:02.087Z,13.27
2022-12-01T06:48:30.067Z,13.13
2022-12-01T06:50:58.256Z,11.68
2022-12-01T06:53:25.899Z,13.30
2022-12-01T06:55:52.576Z,12.40
2022-12-01T06:58:19.155Z,12.98
2022-12-01T07:00:51.785Z,13.07
2022-12-01T07:03:18.873Z,13.02
2022-12-01T07:05:54.384Z,13.25
2022-12-01T07:08:21.032Z,12.82
2022-12-01T07:10:59.986Z,14.07
2022-12-01T07:13:32.819Z,14.75
2022-12-01T07:16:04.127Z,12.85
2022-12-01T07:18:32.086Z,13.88
2022-12-01T07:21:07.169Z,11.38
2022-12-01T07:23:34.821Z,13.80
2022-12-01T07:26:05.076Z,13.07
2022-12-01T07:28:31.917Z,16.23
2022-12-01T07:31:13.682Z,13.65
2022-12-01T07:33:40.747Z,14.45
2022-12-01T07:36:08.251Z,12.60
2022-12-01T07:38:36.084Z,12.75
2022-12-01T07:41:10.938Z,15.35
2022-12-01T07:43:38.386Z,15.75
2022-12-01T07:46:09.410Z,14.98
2022-12-01T07:48:40.561Z,13.35
2022-12-01T07:51:09.792Z,17.02
2022-12-01T07:53:36.822Z,14.82
2022-12-01T07:56:08.645Z,17.20
2022-12-01T07:58:36.645Z,17.33
2022-12-01T08:01:15.421Z,17.35
2022-12-01T08:03:42.765Z,22.05
2022-12-01T08:06:10.688Z,22.35
2022-12-01T08:08:40.727Z,18.85
2022-12-01T08:11:13.979Z,21.13
2022-12-01T08:13:41.885Z,20.70
2022-12-01T08:16:10.524Z,20.75
2022-12-01T08:18:38.645Z,29.30
2022-12-01T08:21:07.092Z,24.85
2022-12-01T08:23:34.233Z,25.33
2022-12-01T08:26:02.735Z,24.05
2022-12-01T08:28:29.601Z,22.80
2022-12-01T08:30:56.632Z,22.85
2022-12-01T08:33:23.428Z,24.15
2022-12-01T08:35:50.244Z,22.60
2022-12-01T08:38:17.102Z,22.05
2022-12-01T08:40:43.877Z,21.33
2022-12-01T08:43:23.089Z,23.55
2022-12-01T08:46:02.156Z,27.75
2022-12-01T08:48:30.101Z,21.73
2022-12-01T08:51:09.049Z,24.88
2022-12-01T08:53:45.193Z,20.70
2022-12-01T08:56:24.883Z,24.88
2022-12-01T08:58:51.877Z,19.20
2022-12-01T09:01:19.737Z,20.48
2022-12-01T09:03:46.728Z,23.05
2022-12-01T09:06:15.807Z,19.60
2022-12-01T09:08:43.521Z,19.25
2022-12-01T09:11:14.262Z,19.73
2022-12-01T09:13:41.772Z,17.95
2022-12-01T09:16:14.794Z,18.52
2022-12-01T09:18:42.559Z,18.35
2022-12-01T09:21:14.696Z,21.85
2022-12-01T09:23:41.700Z,17.52
2022-12-01T09:26:13.368Z,16.42
2022-12-01T09:28:40.527Z,18.08
2022-12-01T09:31:09.676Z,18.08
2022-12-01T09:33:36.901Z,17.70
2022-12-01T09:36:05.251Z,17.40
2022-12-01T09:38:34.693Z,16.42
2022-12-01T09:43:45.835Z,14.50
2022-12-01T09:46:18.896Z,17.42
2022-12-01T09:48:48.431Z,16.60
2022-12-01T09:51:15.015Z,16.42
2022-12-01T09:53:43.070Z,17.55
2022-12-01T09:56:23.588Z,17.20
2022-12-01T09:58:56.407Z,16.48
2022-12-01T10:01:37.373Z,14.98
2022-12-01T10:04:13.456Z,15.80
2022-12-01T10:06:48.351Z,16.73
2022-12-01T10:09:24.515Z,15.90
2022-12-01T10:11:57.098Z,19.25
2022-12-01T10:14:23.936Z,18.92
2022-12-01T10:16:50.597Z,15.48
2022-12-01T10:19:39.332Z,14.07
2022-12-01T10:22:27.567Z,17.08
2022-12-01T10:25:15.813Z,16.75
2022-12-01T10:28:19.083Z,18.42
2022-12-01T10:30:50.862Z,17.55
2022-12-01T10:33:27.197Z,16.33
2022-12-01T10:35:54.185Z,15.07
2022-12-01T10:38:31.404Z,14.65
2022-12-01T10:41:01.070Z,14.10
2022-12-01T10:43:50.408Z,14.50
2022-12-01T10:48:57.729Z,14.65
2022-12-01T10:51:25.935Z,13.63
2022-12-01T10:54:06.446Z,16.48
2022-12-01T10:56:34.031Z,12.48
2022-12-01T10:59:16.529Z,14.23
2022-12-01T11:01:48.228Z,12.23
2022-12-01T11:04:29.820Z,13.00
2022-12-01T11:06:57.382Z,12.77
2022-12-01T11:09:26.772Z,11.90
2022-12-01T11:14:33.562Z,12.20
2022-12-01T11:17:35.393Z,14.18
2022-12-01T11:20:33.070Z,12.93
2022-12-01T11:23:18.424Z,11.60
2022-12-01T11:26:02.182Z,12.75
2022-12-01T11:28:29.830Z,13.50
2022-12-01T11:31:02.804Z,12.30
2022-12-01T11:33:32.290Z,11.90
2022-12-01T11:38:34.481Z,10.50
2022-12-01T11:41:01.397Z,11.45
2022-12-01T11:43:37.146Z,11.75
2022-12-01T11:46:09.473Z,12.20
2022-12-01T11:48:36.771Z,10.07
2022-12-01T11:51:18.222Z,10.70
2022-12-01T11:53:45.209Z,11.15
2022-12-01T11:56:31.571Z,11.07
2022-12-01T11:59:02.425Z,11.20
2022-12-01T12:01:59.418Z,12.35
2022-12-01T12:04:50.595Z,11.82
2022-12-01T12:07:40.674Z,12.27
2022-12-01T12:10:22.170Z,11.32
2022-12-01T12:13:00.641Z,11.43
2022-12-01T12:15:50.014Z,12.13
2022-12-01T12:18:19.408Z,10.77
2022-12-01T12:23:24.761Z,12.00
2022-12-01T12:25:59.938Z,12.20
2022-12-01T12:29:35.509Z,13.63
2022-12-01T13:03:06.261Z,13.10
2022-12-01T13:05:47.553Z,12.93
2022-12-01T13:08:20.866Z,11.57
2022-12-01T13:11:02.879Z,12.85
2022-12-01T13:13:37.630Z,11.82
2022-12-01T13:16:11.112Z,10.52
2022-12-01T13:18:53.112Z,11.82
2022-12-01T13:21:22.442Z,12.30
2022-12-01T13:26:20.001Z,11.18
2022-12-01T13:28:51.138Z,12.15
2022-12-01T13:31:19.853Z,11.25
2022-12-01T13:34:01.589Z,12.77
2022-12-01T13:36:46.395Z,12.05
2022-12-01T13:39:29.452Z,13.25
2022-12-01T13:42:20.410Z,12.15
2022-12-01T13:45:01.129Z,13.15
2022-12-01T13:47:47.925Z,16.35
2022-12-01T13:50:36.509Z,13.25
2022-12-01T13:53:33.323Z,14.85
2022-12-01T13:55:59.842Z,14.13
2022-12-01T13:58:43.143Z,13.45
2022-12-01T14:01:22.452Z,14.23
2022-12-01T14:04:15.547Z,15.32
2022-12-01T14:06:49.282Z,13.38
2022-12-01T14:09:24.094Z,16.40
2022-12-01T14:12:13.710Z,16.27
2022-12-01T14:14:48.264Z,18.23
2022-12-01T14:17:36.447Z,16.83
2022-12-01T14:20:08.690Z,18.33
2022-12-01T14:22:38.377Z,20.20
2022-12-01T14:25:22.847Z,16.50
2022-12-01T14:27:56.189Z,18.85
2022-12-01T14:30:45.730Z,19.13
2022-12-01T14:33:45.905Z,17.35
2022-12-01T14:36:43.649Z,19.13
2022-12-01T14:39:19.086Z,17.65
2022-12-01T14:41:56.873Z,18.10
2022-12-01T14:44:39.163Z,18.88
2022-12-01T14:47:06.472Z,18.88
2022-12-01T14:49:40.411Z,19.67
2022-12-01T14:52:30.828Z,17.95
2022-12-01T14:55:00.677Z,17.00
2022-12-01T14:58:01.967Z,19.05
2022-12-01T15:00:29.908Z,18.77
2022-12-01T15:02:59.460Z,18.33
2022-12-01T15:05:28.779Z,18.55
2022-12-01T15:10:51.243Z,19.05
2022-12-01T15:13:22.625Z,18.38
2022-12-01T15:15:52.285Z,20.83
2022-12-01T15:18:29.458Z,21.20
2022-12-01T15:21:05.189Z,20.83
2022-12-01T15:23:32.046Z,18.92
2022-12-01T15:25:58.871Z,18.55
2022-12-01T15:28:35.474Z,19.55
2022-12-01T15:31:11.240Z,22.35
2022-12-01T15:33:46.033Z,22.17
2022-12-01T15:36:13.631Z,25.45
2022-12-01T15:38:43.957Z,24.83
2022-12-01T15:41:28.987Z,22.77
2022-12-01T15:43:59.010Z,22.15
2022-12-01T15:46:36.788Z,22.50
2022-12-01T15:49:20.845Z,22.30
2022-12-01T15:51:49.615Z,23.70
2022-12-01T15:54:27.223Z,21.17
2022-12-01T15:56:56.119Z,22.02
2022-12-01T15:59:27.420Z,22.38
2022-12-01T16:01:54.710Z,23.80
2022-12-01T16:04:27.760Z,22.70
2022-12-01T16:07:01.721Z,23.38
2022-12-01T16:09:34.038Z,21.15
2022-12-01T16:12:09.491Z,22.08
2022-12-01T16:14:36.841Z,24.27
2022-12-01T16:17:05.455Z,25.27
2022-12-01T16:19:34.007Z,23.27
2022-12-01T16:22:15.804Z,23.93
2022-12-01T16:24:54.861Z,22.48
2022-12-01T16:27:27.258Z,22.52
2022-12-01T16:30:08.222Z,27.02
2022-12-01T16:32:42.706Z,21.48
2022-12-01T16:35:27.929Z,21.85
2022-12-01T16:37:55.094Z,22.65
2022-12-01T16:40:21.761Z,23.00
2022-12-01T16:42:51.274Z,25.90
2022-12-01T16:45:19.669Z,25.08
2022-12-01T16:47:48.107Z,23.92
2022-12-01T16:50:16.570Z,24.10
2022-12-01T16:52:45.371Z,23.77
2022-12-01T16:57:57.950Z,20.67
2022-12-01T17:00:25.024Z,25.33
2022-12-01T17:02:52.835Z,22.38
2022-12-01T17:05:20.137Z,23.77
2022-12-01T17:07:47.240Z,24.50
2022-12-01T17:10:14.499Z,22.25
2022-12-01T17:12:41.437Z,22.73
2022-12-01T17:15:08.898Z,22.88
2022-12-01T17:17:35.563Z,24.90
2022-12-01T17:20:02.966Z,23.88
2022-12-01T17:22:30.224Z,22.67
2022-12-01T17:24:57.126Z,21.95
2022-12-01T17:27:25.186Z,23.42
2022-12-01T17:29:51.888Z,23.05
2022-12-01T17:32:18.581Z,24.00
2022-12-01T17:34:45.486Z,22.27
2022-12-01T17:37:17.532Z,24.33
2022-12-01T17:39:47.290Z,23.92
2022-12-01T17:42:14.011Z,22.23
2022-12-01T17:44:40.665Z,22.58
2022-12-01T17:47:07.299Z,23.83
2022-12-01T17:49:36.378Z,22.35
2022-12-01T17:52:04.820Z,22.38
2022-12-01T17:54:31.792Z,24.37
2022-12-01T17:56:58.754Z,23.17
2022-12-01T17:59:25.807Z,22.23
2022-12-01T18:02:10.979Z,19.88
2022-12-01T18:04:37.762Z,21.08
2022-12-01T18:07:04.465Z,22.52
2022-12-01T18:09:31.345Z,23.30
2022-12-01T18:11:59.866Z,19.52
2022-12-01T18:14:26.918Z,20.23
2022-12-01T18:16:54.000Z,20.83
2022-12-01T18:19:20.890Z,22.83
2022-12-01T18:21:50.202Z,22.40
2022-12-01T18:24:16.880Z,21.17
2022-12-01T18:26:43.774Z,21.08
2022-12-01T18:29:25.833Z,18.92
2022-12-01T18:31:55.069Z,19.58
2022-12-01T18:34:21.863Z,19.70
2022-12-01T18:36:48.529Z,18.30
2022-12-01T18:39:16.177Z,19.83
2022-12-01T18:41:43.101Z,19.80
2022-12-01T18:44:10.129Z,19.75
2022-12-01T18:46:36.874Z,21.40
2022-12-01T18:49:04.727Z,19.30
2022-12-01T18:51:50.037Z,20.50
2022-12-01T18:54:16.853Z,21.33
2022-12-01T18:56:43.616Z,17.98
2022-12-01T18:59:11.844Z,19.38
2022-12-01T19:01:41.504Z,18.30
2022-12-01T19:04:09.727Z,17.75
2022-12-01T19:06:38.566Z,21.30
2022-12-01T19:09:06.614Z,19.48
2022-12-01T19:11:33.443Z,18.65
2022-12-01T19:14:00.282Z,21.10
2022-12-01T19:16:27.786Z,19.35
2022-12-01T19:18:54.441Z,20.30
2022-12-01T19:21:21.227Z,17.75
2022-12-01T19:24:07.719Z,20.77
2022-12-01T19:26:34.366Z,20.27
2022-12-01T19:29:01.878Z,22.70
2022-12-01T19:31:28.569Z,21.48
2022-12-01T19:33:55.742Z,22.08
2022-12-01T19:36:27.892Z,23.35
2022-12-01T19:38:57.817Z,22.98
2022-12-01T19:41:43.119Z,21.10
2022-12-01T19:44:10.350Z,24.20
2022-12-01T19:46:37.787Z,22.98
2022-12-01T19:49:06.740Z,23.15
2022-12-01T19:51:35.512Z,21.67
2022-12-01T19:54:03.087Z,24.85
2022-12-01T19:56:29.943Z,24.48
2022-12-01T19:58:57.919Z,23.35
2022-12-01T20:01:26.199Z,23.70
2022-12-01T20:03:57.158Z,21.35
2022-12-01T20:06:27.566Z,21.27
2022-12-01T20:08:56.790Z,24.10
2022-12-01T20:11:23.902Z,23.92
2022-12-01T20:13:52.662Z,25.70
2022-12-01T20:16:22.964Z,24.50
2022-12-01T20:18:50.601Z,25.27
2022-12-01T20:21:26.180Z,26.00
2022-12-01T20:23:58.607Z,25.80
2022-12-01T20:26:32.515Z,25.75
2022-12-01T20:29:11.807Z,23.92
2022-12-01T20:31:39.063Z,22.83
2022-12-01T20:34:10.109Z,24.13
2022-12-01T20:36:37.096Z,23.48
2022-12-01T20:39:05.854Z,22.88
2022-12-01T20:41:32.724Z,25.52
2022-12-01T20:44:05.382Z,22.80
2022-12-01T20:46:34.237Z,24.00
2022-12-01T20:49:00.785Z,22.08
2022-12-01T20:51:27.944Z,20.40
2022-12-01T20:54:19.645Z,22.00
2022-12-01T20:56:41.610Z,22.98
2022-12-01T20:59:08.428Z,24.70
2022-12-01T21:01:35.446Z,24.13
2022-12-01T21:04:02.374Z,22.45
2022-12-01T21:06:29.219Z,20.52
2022-12-01T21:08:55.869Z,22.05
2022-12-01T21:11:49.568Z,21.13
2022-12-01T21:14:28.093Z,22.25
2022-12-01T21:16:57.980Z,24.43
2022-12-01T21:19:31.490Z,25.55
2022-12-01T21:21:58.829Z,25.23
2022-12-01T21:24:33.523Z,24.67
2022-12-01T21:27:15.535Z,23.73
2022-12-01T21:29:46.024Z,25.73
2022-12-01T21:32:18.948Z,25.77
2022-12-01T21:34:47.977Z,27.10
2022-12-01T21:37:23.686Z,25.70
2022-12-01T21:39:52.127Z,27.50
2022-12-01T21:42:22.400Z,25.85
2022-12-01T21:44:49.741Z,29.75
2022-12-01T21:47:23.260Z,26.73
2022-12-01T21:49:56.050Z,26.80
2022-12-01T21:52:30.047Z,28.92
2022-12-01T21:55:02.866Z,24.95
2022-12-01T21:57:42.560Z,26.60
2022-12-01T22:00:34.555Z,25.50
2022-12-01T22:03:25.083Z,26.10
2022-12-01T22:06:27.747Z,27.92
2022-12-01T22:08:46.385Z,26.35
2022-12-01T22:11:21.959Z,28.85
2022-12-01T22:14:13.397Z,27.73
2022-12-01T22:16:45.755Z,27.33
2022-12-01T22:19:15.061Z,27.67
2022-12-01T22:21:48.321Z,26.85
2022-12-01T22:24:26.569Z,27.08
2022-12-01T22:27:28.629Z,25.17
2022-12-01T22:30:02.104Z,26.15
2022-12-01T22:32:34.561Z,25.83
2022-12-01T22:35:10.054Z,26.58
2022-12-01T22:37:43.993Z,28.60
2022-12-01T22:40:36.454Z,25.38
2022-12-01T22:43:17.977Z,27.40
2022-12-01T22:45:59.833Z,24.80
2022-12-01T22:48:46.412Z,24.50
2022-12-01T22:51:13.394Z,27.52
2022-12-01T22:53:41.774Z,24.67
2022-12-01T22:56:42.051Z,27.30
2022-12-01T22:59:24.232Z,25.60
2022-12-01T23:01:53.516Z,24.15
2022-12-01T23:07:08.349Z,22.67
2022-12-01T23:09:44.133Z,24.85
2022-12-01T23:12:10.959Z,24.08
2022-12-01T23:14:44.697Z,23.92
2022-12-01T23:17:17.319Z,24.55
2022-12-01T23:19:44.097Z,22.35
2022-12-01T23:22:11.762Z,25.45
2022-12-01T23:24:39.347Z,25.48
2022-12-01T23:27:06.996Z,22.17
2022-12-01T23:29:34.778Z,23.63
2022-12-01T23:32:01.645Z,23.05
2022-12-01T23:34:28.767Z,23.92
2022-12-01T23:36:56.124Z,24.52
2022-12-01T23:39:35.141Z,23.48
2022-12-01T23:42:02.748Z,22.33
2022-12-01T23:44:45.217Z,23.17
2022-12-01T23:47:27.811Z,21.25
2022-12-01T23:50:00.863Z,24.77
2022-12-01T23:52:35.162Z,21.77
2022-12-01T23:55:07.509Z,24.33
2022-12-01T23:57:37.000Z,22.15
